createdAt,value
2022-08-09T00:00:06.496Z,37.78
2022-08-09T00:02:34.991Z,37.74
2022-08-09T00:06:16.347Z,37.49
2022-08-09T00:07:48.888Z,37.51
2022-08-09T00:10:21.542Z,37.72
2022-08-09T00:12:52.511Z,37.51
2022-08-09T00:15:26.752Z,37.33
2022-08-09T00:18:11.891Z,37.34
2022-08-09T00:20:42.638Z,37.61
2022-08-09T00:23:57.235Z,37.55
2022-08-09T00:26:06.099Z,37.82
2022-08-09T00:28:34.518Z,37.99
2022-08-09T00:31:30.649Z,37.85
2022-08-09T00:33:52.485Z,37.77
2022-08-09T00:36:19.945Z,37.85
2022-08-09T00:38:46.708Z,38.14
2022-08-09T00:44:11.420Z,38.39
2022-08-09T00:44:11.596Z,38.57
2022-08-09T00:46:57.005Z,38.85
2022-08-09T00:49:31.273Z,38.87
2022-08-09T00:52:05.131Z,38.83
2022-08-09T00:54:36.167Z,38.80
2022-08-09T00:57:08.799Z,38.73
2022-08-09T00:59:41.694Z,38.95
2022-08-09T01:02:21.338Z,38.95
2022-08-09T01:04:58.212Z,38.88
2022-08-09T01:08:16.239Z,38.70
2022-08-09T01:10:54.673Z,38.63
2022-08-09T01:13:59.140Z,38.48
2022-08-09T01:16:30.415Z,38.49
2022-08-09T01:19:02.606Z,38.34
2022-08-09T01:21:53.571Z,38.34
2022-08-09T01:24:29.556Z,38.27
2022-08-09T01:27:08.846Z,38.37
2022-08-09T01:29:55.637Z,38.25
2022-08-09T01:32:31.947Z,38.12
2022-08-09T01:35:06.984Z,38.08
2022-08-09T01:38:07.701Z,38.25
2022-08-09T01:40:36.965Z,38.30
2022-08-09T01:43:03.645Z,38.43
2022-08-09T01:45:31.034Z,38.29
2022-08-09T01:47:57.728Z,38.64
2022-08-09T01:50:29.897Z,39.30
2022-08-09T01:53:19.941Z,39.23
2022-08-09T01:55:48.298Z,39.56
2022-08-09T01:58:15.258Z,39.93
2022-08-09T02:00:43.200Z,39.40
2022-08-09T02:03:13.948Z,39.10
2022-08-09T02:06:03.848Z,39.09
2022-08-09T02:08:36.004Z,38.85
2022-08-09T02:11:17.201Z,38.98
2022-08-09T02:13:44.207Z,38.98
2022-08-09T02:16:38.645Z,39.10
2022-08-09T02:19:20.511Z,39.34
2022-08-09T02:21:55.765Z,39.42
2022-08-09T02:24:26.206Z,39.19
2022-08-09T02:26:54.003Z,39.37
2022-08-09T02:29:23.613Z,39.15
2022-08-09T02:31:50.456Z,38.96
2022-08-09T02:34:40.450Z,39.13
2022-08-09T02:37:12.171Z,39.20
2022-08-09T02:39:42.653Z,39.42
2022-08-09T02:42:18.011Z,39.16
2022-08-09T02:44:50.505Z,39.17
2022-08-09T02:47:17.594Z,39.68
2022-08-09T02:50:14.627Z,39.46
2022-08-09T02:52:49.971Z,39.85
2022-08-09T02:55:23.435Z,40.09
2022-08-09T02:58:35.629Z,39.99
2022-08-09T03:00:58.474Z,40.07
2022-08-09T03:03:37.214Z,39.93
2022-08-09T03:06:14.968Z,40.01
2022-08-09T03:08:45.300Z,39.98
2022-08-09T03:12:06.395Z,39.93
2022-08-09T03:14:02.989Z,40.31
2022-08-09T03:16:29.630Z,40.26
2022-08-09T03:18:56.264Z,40.63
2022-08-09T03:21:28.368Z,40.53
2022-08-09T03:24:04.789Z,40.11
2022-08-09T03:26:32.236Z,40.33
2022-08-09T03:29:01.283Z,40.48
2022-08-09T03:31:42.609Z,40.45
2022-08-09T03:34:23.252Z,40.84
2022-08-09T03:36:59.463Z,40.94
2022-08-09T03:39:37.935Z,41.43
2022-08-09T03:42:06.806Z,41.30
2022-08-09T03:44:34.044Z,41.37
2022-08-09T03:47:00.693Z,41.44
2022-08-09T03:49:32.891Z,41.38
2022-08-09T03:52:03.539Z,41.65
2022-08-09T03:54:38.465Z,41.73
2022-08-09T03:57:18.627Z,42.00
2022-08-09T03:59:54.676Z,42.13
2022-08-09T04:02:28.252Z,42.02
2022-08-09T04:05:00.567Z,42.30
2022-08-09T04:07:47.657Z,42.24
2022-08-09T04:10:18.431Z,42.18
2022-08-09T04:12:51.471Z,42.11
2022-08-09T04:15:39.106Z,41.97
2022-08-09T04:18:06.145Z,41.71
2022-08-09T04:20:33.378Z,41.76
2022-08-09T04:23:00.623Z,41.70
2022-08-09T04:25:28.790Z,41.61
2022-08-09T04:28:02.439Z,41.48
2022-08-09T04:30:30.761Z,41.34
2022-08-09T04:32:57.488Z,40.95
2022-08-09T04:35:24.108Z,40.62
2022-08-09T04:37:50.818Z,40.52
2022-08-09T04:40:29.117Z,40.34
2022-08-09T04:43:03.893Z,40.20
2022-08-09T04:45:36.083Z,40.05
2022-08-09T04:48:20.101Z,39.91
2022-08-09T04:50:46.719Z,39.89
2022-08-09T04:53:16.721Z,39.58
2022-08-09T04:55:43.908Z,39.48
2022-08-09T04:58:24.256Z,39.31
2022-08-09T05:00:52.279Z,39.25
2022-08-09T05:03:40.878Z,39.08
2022-08-09T05:06:08.291Z,38.72
2022-08-09T05:08:35.201Z,38.87
2022-08-09T05:11:02.576Z,38.83
2022-08-09T05:13:33.268Z,38.73
2022-08-09T05:16:00.582Z,38.52
2022-08-09T05:18:38.647Z,38.46
2022-08-09T05:21:22.928Z,38.51
2022-08-09T05:24:00.941Z,38.45
2022-08-09T05:26:45.336Z,38.43
2022-08-09T05:29:17.490Z,37.90
2022-08-09T05:31:47.403Z,38.00
2022-08-09T05:34:17.680Z,37.97
2022-08-09T05:36:47.141Z,38.33
2022-08-09T05:39:28.972Z,38.13
2022-08-09T05:42:01.617Z,38.45
2022-08-09T05:44:32.861Z,38.13
2022-08-09T05:47:01.201Z,38.01
2022-08-09T05:50:30.833Z,38.09
2022-08-09T05:52:18.413Z,37.80
2022-08-09T05:54:46.323Z,38.21
2022-08-09T05:57:17.598Z,38.23
2022-08-09T05:59:46.087Z,38.23
2022-08-09T06:02:17.047Z,37.91
2022-08-09T06:04:46.032Z,38.19
2022-08-09T06:07:21.702Z,38.11
2022-08-09T06:09:54.979Z,38.05
2022-08-09T06:12:28.568Z,38.11
2022-08-09T06:14:55.275Z,37.86
2022-08-09T06:17:27.907Z,38.04
2022-08-09T06:20:07.058Z,37.83
2022-08-09T06:22:34.828Z,37.81
2022-08-09T06:25:01.707Z,37.70
2022-08-09T06:27:42.624Z,37.93
2022-08-09T06:30:16.889Z,37.69
2022-08-09T06:32:59.006Z,37.90
2022-08-09T06:35:56.002Z,37.80
2022-08-09T06:38:13.385Z,37.80
2022-08-09T06:40:42.692Z,37.80
2022-08-09T06:43:10.487Z,37.40
2022-08-09T06:46:05.962Z,37.80
2022-08-09T06:48:30.106Z,37.65
2022-08-09T06:50:58.383Z,37.64
2022-08-09T06:53:25.047Z,37.49
2022-08-09T06:55:52.396Z,37.36
2022-08-09T07:00:46.776Z,37.54
2022-08-09T07:01:06.270Z,37.44
2022-08-09T07:03:39.791Z,37.43
2022-08-09T07:06:20.012Z,37.31
2022-08-09T07:08:49.551Z,37.63
2022-08-09T07:11:23.414Z,37.57
2022-08-09T07:14:05.155Z,37.40
2022-08-09T07:16:41.614Z,37.73
2022-08-09T07:19:15.175Z,37.60
2022-08-09T07:21:55.900Z,37.46
2022-08-09T07:24:32.096Z,37.75
2022-08-09T07:27:10.846Z,37.44
2022-08-09T07:29:56.972Z,37.64
2022-08-09T07:32:33.293Z,37.35
2022-08-09T07:35:11.652Z,37.32
2022-08-09T07:37:44.497Z,37.77
2022-08-09T07:40:16.996Z,37.51
2022-08-09T07:43:03.101Z,37.32
2022-08-09T07:45:40.323Z,37.76
2022-08-09T07:48:29.590Z,37.55
2022-08-09T07:51:10.051Z,37.30
2022-08-09T07:54:05.140Z,37.50
2022-08-09T07:56:30.837Z,37.52
2022-08-09T07:58:59.225Z,37.60
2022-08-09T08:01:34.072Z,37.64
2022-08-09T08:04:02.043Z,37.41
2022-08-09T08:06:31.929Z,37.71
2022-08-09T08:09:03.386Z,37.59
2022-08-09T08:12:24.576Z,37.60
2022-08-09T08:14:17.624Z,37.54
2022-08-09T08:17:00.937Z,37.33
2022-08-09T08:19:33.401Z,37.28
2022-08-09T08:22:00.192Z,37.73
2022-08-09T08:24:35.145Z,37.26
2022-08-09T08:27:17.297Z,37.48
2022-08-09T08:29:48.549Z,37.58
2022-08-09T08:32:18.865Z,37.25
2022-08-09T08:34:51.981Z,37.36
2022-08-09T08:37:21.713Z,37.27
2022-08-09T08:39:51.759Z,37.48
2022-08-09T08:42:18.486Z,37.41
2022-08-09T08:44:57.565Z,37.21
2022-08-09T08:47:28.423Z,37.50
2022-08-09T08:49:59.333Z,37.05
2022-08-09T08:52:58.086Z,37.24
2022-08-09T08:55:18.938Z,37.36
2022-08-09T08:57:57.073Z,37.27
2022-08-09T09:00:30.031Z,37.00
2022-08-09T09:03:12.271Z,36.98
2022-08-09T09:06:00.835Z,37.19
2022-08-09T09:08:40.318Z,37.23
2022-08-09T09:11:07.909Z,36.92
2022-08-09T09:13:54.814Z,36.80
2022-08-09T09:16:30.225Z,37.08
2022-08-09T09:19:29.199Z,36.75
2022-08-09T09:21:58.060Z,37.04
2022-08-09T09:24:29.159Z,36.73
2022-08-09T09:26:57.303Z,36.83
2022-08-09T09:30:13.870Z,36.54
2022-08-09T09:32:35.131Z,36.44
2022-08-09T09:35:02.111Z,36.51
2022-08-09T09:37:32.077Z,36.75
2022-08-09T09:39:59.940Z,36.33
2022-08-09T09:42:29.731Z,36.72
2022-08-09T09:44:59.177Z,36.66
2022-08-09T09:47:26.503Z,36.58
2022-08-09T09:50:15.258Z,36.21
2022-08-09T09:52:54.888Z,36.41
2022-08-09T09:55:29.179Z,36.35
2022-08-09T09:58:17.405Z,36.15
2022-08-09T10:00:58.886Z,36.36
2022-08-09T10:03:44.265Z,36.47
2022-08-09T10:06:12.764Z,36.06
2022-08-09T10:08:54.632Z,36.26
2022-08-09T10:11:59.624Z,36.06
2022-08-09T10:14:30.438Z,35.86
2022-08-09T10:17:11.405Z,36.15
2022-08-09T10:19:46.177Z,35.91
2022-08-09T10:22:12.799Z,35.89
2022-08-09T10:24:39.844Z,35.64
2022-08-09T10:27:10.271Z,35.76
2022-08-09T10:30:43.999Z,35.84
2022-08-09T10:32:50.454Z,35.73
2022-08-09T10:35:17.301Z,35.59
2022-08-09T10:37:46.942Z,35.65
2022-08-09T10:40:33.299Z,35.46
2022-08-09T10:43:03.216Z,35.54
2022-08-09T10:45:31.870Z,35.62
2022-08-09T10:48:14.281Z,35.50
2022-08-09T10:51:06.870Z,35.41
2022-08-09T10:53:54.313Z,35.23
2022-08-09T10:56:31.213Z,35.41
2022-08-09T10:58:58.757Z,35.19
2022-08-09T11:03:14.038Z,35.08
2022-08-09T11:04:30.196Z,35.15
2022-08-09T11:07:00.283Z,34.88
2022-08-09T11:09:41.357Z,34.70
2022-08-09T11:12:30.429Z,35.03
2022-08-09T11:14:58.254Z,34.65
2022-08-09T11:17:25.134Z,34.94
2022-08-09T11:20:11.505Z,34.88
2022-08-09T11:22:42.599Z,34.65
2022-08-09T11:25:15.108Z,34.90
2022-08-09T11:28:03.891Z,34.47
2022-08-09T11:30:35.555Z,34.80
2022-08-09T11:33:39.061Z,34.44
2022-08-09T11:36:05.893Z,34.69
2022-08-09T11:38:35.047Z,34.63
2022-08-09T11:41:12.942Z,34.32
2022-08-09T11:43:43.997Z,34.27
2022-08-09T11:46:10.727Z,34.30
2022-08-09T11:48:54.441Z,34.51
2022-08-09T11:53:04.113Z,34.47
2022-08-09T11:54:15.474Z,34.25
2022-08-09T11:57:56.814Z,34.55
2022-08-09T12:00:16.335Z,34.32
2022-08-09T12:02:43.832Z,34.28
2022-08-09T12:05:23.071Z,34.46
2022-08-09T12:07:50.027Z,34.32
2022-08-09T12:10:38.597Z,34.35
2022-08-09T12:14:07.482Z,34.33
2022-08-09T12:15:57.352Z,34.13
2022-08-09T12:18:29.563Z,34.43
2022-08-09T12:20:57.087Z,34.27
2022-08-09T12:23:56.662Z,33.96
2022-08-09T12:26:12.964Z,33.96
2022-08-09T12:29:00.008Z,34.15
2022-08-09T12:32:02.199Z,34.13
2022-08-09T12:34:40.437Z,34.13
2022-08-09T12:37:23.519Z,33.80
2022-08-09T12:40:05.636Z,34.00
2022-08-09T12:42:32.917Z,34.01
2022-08-09T12:45:00.242Z,33.63
2022-08-09T12:47:27.405Z,33.80
2022-08-09T12:50:19.997Z,33.84
2022-08-09T12:53:08.199Z,33.62
2022-08-09T12:56:11.788Z,33.72
2022-08-09T12:58:28.275Z,34.01
2022-08-09T13:00:55.239Z,33.55
2022-08-09T13:03:56.895Z,33.54
2022-08-09T13:06:34.306Z,33.81
2022-08-09T13:09:07.253Z,33.62
2022-08-09T13:11:39.423Z,33.46
2022-08-09T13:14:37.255Z,33.64
2022-08-09T13:16:58.875Z,33.85
2022-08-09T13:20:09.799Z,33.80
2022-08-09T13:22:35.430Z,33.54
2022-08-09T13:25:07.505Z,33.43
2022-08-09T13:27:40.136Z,33.80
2022-08-09T13:30:51.141Z,33.57
2022-08-09T13:33:04.112Z,33.47
2022-08-09T13:35:34.857Z,33.57
2022-08-09T13:38:56.128Z,33.43
2022-08-09T13:41:45.982Z,33.39
2022-08-09T13:43:52.508Z,33.75
2022-08-09T13:47:16.859Z,33.70
2022-08-09T13:49:06.602Z,33.64
2022-08-09T13:51:58.702Z,33.63
2022-08-09T13:54:30.260Z,33.75
2022-08-09T13:56:57.180Z,33.42
2022-08-09T13:59:25.617Z,33.60
2022-08-09T14:02:00.428Z,33.79
2022-08-09T14:04:29.197Z,33.55
2022-08-09T14:06:56.775Z,33.21
2022-08-09T14:09:23.560Z,33.33
2022-08-09T14:11:51.399Z,33.18
2022-08-09T14:14:25.827Z,33.30
2022-08-09T14:16:54.819Z,33.45
2022-08-09T14:19:21.634Z,33.04
2022-08-09T14:21:49.336Z,33.38
2022-08-09T14:24:22.008Z,33.46
2022-08-09T14:26:58.441Z,33.08
2022-08-09T14:29:25.527Z,33.11
2022-08-09T14:32:13.153Z,33.03
2022-08-09T14:34:42.836Z,33.04
2022-08-09T14:37:09.586Z,32.92
2022-08-09T14:39:39.981Z,32.92
2022-08-09T14:42:11.727Z,33.21
2022-08-09T14:44:48.659Z,32.90
2022-08-09T14:47:39.809Z,32.81
2022-08-09T14:50:02.794Z,33.10
2022-08-09T14:52:32.107Z,33.13
2022-08-09T14:54:58.863Z,32.80
2022-08-09T14:57:31.883Z,32.86
2022-08-09T14:59:58.917Z,32.65
2022-08-09T15:02:27.819Z,32.73
2022-08-09T15:04:56.629Z,32.84
2022-08-09T15:07:25.308Z,32.83
2022-08-09T15:10:07.318Z,32.53
2022-08-09T15:12:37.992Z,32.55
2022-08-09T15:15:08.605Z,32.68
2022-08-09T15:17:41.572Z,32.45
2022-08-09T15:20:11.770Z,32.50
2022-08-09T15:22:46.637Z,32.54
2022-08-09T15:25:16.200Z,32.64
2022-08-09T15:28:03.444Z,32.29
2022-08-09T15:31:00.801Z,32.41
2022-08-09T15:34:31.183Z,32.35
2022-08-09T15:36:28.424Z,32.63
2022-08-09T15:38:56.521Z,32.57
2022-08-09T15:41:23.249Z,32.24
2022-08-09T15:43:58.536Z,32.13
2022-08-09T15:46:33.567Z,32.13
2022-08-09T15:49:21.066Z,31.98
2022-08-09T15:52:03.907Z,32.01
2022-08-09T15:54:44.570Z,32.22
2022-08-09T15:57:19.176Z,32.21
2022-08-09T16:00:14.023Z,32.17
2022-08-09T16:02:43.052Z,32.52
2022-08-09T16:05:20.270Z,32.50
2022-08-09T16:07:50.590Z,32.04
2022-08-09T16:10:38.631Z,32.36
2022-08-09T16:13:04.799Z,32.26
2022-08-09T16:16:10.911Z,32.23
2022-08-09T16:18:32.340Z,32.26
2022-08-09T16:20:59.366Z,32.21
2022-08-09T16:23:27.059Z,32.52
2022-08-09T16:26:01.056Z,32.42
2022-08-09T16:28:29.505Z,32.47
2022-08-09T16:30:59.105Z,32.40
2022-08-09T16:33:26.564Z,32.17
2022-08-09T16:35:58.617Z,32.48
2022-08-09T16:38:29.580Z,32.45
2022-08-09T16:40:56.519Z,32.19
2022-08-09T16:43:24.438Z,32.76
2022-08-09T16:45:54.030Z,31.62
2022-08-09T16:48:41.364Z,30.29
2022-08-09T16:51:13.789Z,29.62
2022-08-09T16:54:09.008Z,29.52
2022-08-09T16:56:31.576Z,29.92
2022-08-09T16:58:59.161Z,28.63
2022-08-09T17:01:28.121Z,29.06
2022-08-09T17:04:00.408Z,28.33
2022-08-09T17:06:32.154Z,28.58
2022-08-09T17:09:17.838Z,28.39
2022-08-09T17:11:51.416Z,28.04
2022-08-09T17:14:27.305Z,29.11
2022-08-09T17:16:56.812Z,29.05
2022-08-09T17:19:27.371Z,28.96
2022-08-09T17:22:13.569Z,28.89
2022-08-09T17:24:41.367Z,29.36
2022-08-09T17:27:15.383Z,28.69
2022-08-09T17:29:45.605Z,28.64
2022-08-09T17:32:15.866Z,28.72
2022-08-09T17:35:01.340Z,28.79
2022-08-09T17:38:11.125Z,29.06
2022-08-09T17:40:20.676Z,28.38
2022-08-09T17:42:55.537Z,28.33
2022-08-09T17:45:37.517Z,28.43
2022-08-09T17:48:13.799Z,28.25
2022-08-09T17:50:48.486Z,28.26
2022-08-09T17:53:22.753Z,28.16
2022-08-09T17:55:55.278Z,27.84
2022-08-09T17:58:27.046Z,27.82
2022-08-09T18:00:58.362Z,27.82
2022-08-09T18:03:25.491Z,28.01
2022-08-09T18:05:53.603Z,27.56
2022-08-09T18:08:22.056Z,27.50
2022-08-09T18:11:01.046Z,27.96
2022-08-09T18:13:40.067Z,28.07
2022-08-09T18:16:17.181Z,28.42
2022-08-09T18:18:55.823Z,28.91
2022-08-09T18:21:23.696Z,29.33
2022-08-09T18:24:12.060Z,29.48
2022-08-09T18:26:46.542Z,30.15
2022-08-09T18:30:41.836Z,29.70
2022-08-09T18:32:04.984Z,29.65
2022-08-09T18:34:35.054Z,29.51
2022-08-09T18:37:03.568Z,29.59
2022-08-09T18:39:32.693Z,29.73
2022-08-09T18:42:08.838Z,29.63
2022-08-09T18:44:35.912Z,29.54
2022-08-09T18:47:07.381Z,29.55
2022-08-09T18:49:42.930Z,29.80
2022-08-09T18:52:13.295Z,29.48
2022-08-09T18:54:49.780Z,29.49
2022-08-09T18:57:19.901Z,30.23
2022-08-09T18:59:58.822Z,30.00
2022-08-09T19:02:31.623Z,30.38
2022-08-09T19:05:20.470Z,30.04
2022-08-09T19:08:04.102Z,29.88
2022-08-09T19:10:39.308Z,30.40
2022-08-09T19:13:16.669Z,30.25
2022-08-09T19:15:53.090Z,29.98
2022-08-09T19:18:33.018Z,30.49
2022-08-09T19:21:02.581Z,30.27
2022-08-09T19:24:37.578Z,30.35
2022-08-09T19:26:16.108Z,30.17
2022-08-09T19:28:42.826Z,30.35
2022-08-09T19:31:16.789Z,30.16
2022-08-09T19:33:43.686Z,30.18
2022-08-09T19:36:11.772Z,30.69
2022-08-09T19:38:40.208Z,30.42
2022-08-09T19:41:06.903Z,30.49
2022-08-09T19:44:00.736Z,30.52
2022-08-09T19:46:34.838Z,30.31
2022-08-09T19:50:07.566Z,30.48
2022-08-09T19:51:55.370Z,30.60
2022-08-09T19:54:25.028Z,30.54
2022-08-09T19:56:52.041Z,30.61
2022-08-09T19:59:58.097Z,30.71
2022-08-09T20:02:18.306Z,30.64
2022-08-09T20:04:54.892Z,30.47
2022-08-09T20:07:22.602Z,30.53
2022-08-09T20:09:49.496Z,30.76
2022-08-09T20:12:27.071Z,30.74
2022-08-09T20:15:04.512Z,30.48
2022-08-09T20:17:48.393Z,30.45
2022-08-09T20:20:18.272Z,30.46
2022-08-09T20:22:46.644Z,30.48
2022-08-09T20:25:13.341Z,30.40
2022-08-09T20:27:49.565Z,30.91
2022-08-09T20:30:17.873Z,30.68
2022-08-09T20:32:45.422Z,30.59
2022-08-09T20:35:15.838Z,30.94
2022-08-09T20:38:23.454Z,30.92
2022-08-09T20:40:30.191Z,30.91
2022-08-09T20:43:12.132Z,31.03
2022-08-09T20:45:59.628Z,30.73
2022-08-09T20:48:31.693Z,30.66
2022-08-09T20:51:02.979Z,30.85
2022-08-09T20:53:36.977Z,30.87
2022-08-09T20:56:20.187Z,30.81
2022-08-09T20:58:48.966Z,31.17
2022-08-09T21:01:34.767Z,32.00
2022-08-09T21:05:48.546Z,32.56
2022-08-09T21:06:50.628Z,32.59
2022-08-09T21:09:32.835Z,32.75
2022-08-09T21:14:34.671Z,32.46
2022-08-09T21:17:02.545Z,32.73
2022-08-09T21:20:18.877Z,34.39
2022-08-09T21:22:47.018Z,33.93
2022-08-09T21:25:38.530Z,34.23
2022-08-09T21:28:07.413Z,34.38
2022-08-09T21:30:40.587Z,34.28
2022-08-09T21:33:08.071Z,34.45
2022-08-09T21:35:40.535Z,34.25
2022-08-09T21:38:18.427Z,34.74
2022-08-09T21:40:57.877Z,34.60
2022-08-09T21:43:55.942Z,34.67
2022-08-09T21:46:11.167Z,35.11
2022-08-09T21:48:38.766Z,35.30
2022-08-09T21:51:14.201Z,35.18
2022-08-09T21:53:49.612Z,35.47
2022-08-09T21:56:33.890Z,35.55
2022-08-09T21:59:04.278Z,35.52
2022-08-09T22:01:59.479Z,35.37
2022-08-09T22:04:18.675Z,35.68
2022-08-09T22:06:59.326Z,35.73
2022-08-09T22:09:28.868Z,35.82
2022-08-09T22:12:18.019Z,35.99
2022-08-09T22:14:42.672Z,35.80
2022-08-09T22:17:11.365Z,36.15
2022-08-09T22:19:59.629Z,35.86
2022-08-09T22:22:24.873Z,36.20
2022-08-09T22:26:04.265Z,36.13
2022-08-09T22:27:39.209Z,36.22
2022-08-09T22:30:07.887Z,36.12
2022-08-09T22:32:34.950Z,36.02
2022-08-09T22:35:05.838Z,36.22
2022-08-09T22:37:33.647Z,36.56
2022-08-09T22:40:09.749Z,36.72
2022-08-09T22:42:37.861Z,36.54
2022-08-09T22:48:10.104Z,36.63
2022-08-09T22:48:13.618Z,36.75
2022-08-09T22:50:38.890Z,37.02
2022-08-09T22:53:06.879Z,37.11
2022-08-09T22:56:06.124Z,37.37
2022-08-09T22:58:32.486Z,37.49
2022-08-09T23:01:03.680Z,37.51
2022-08-09T23:04:04.452Z,37.65
2022-08-09T23:06:35.461Z,37.64
2022-08-09T23:09:06.674Z,37.64
2022-08-09T23:11:33.383Z,37.53
2022-08-09T23:14:00.026Z,37.59
2022-08-09T23:16:26.638Z,37.65
2022-08-09T23:18:53.221Z,37.57
2022-08-09T23:21:25.978Z,37.78
2022-08-09T23:24:05.225Z,37.56
2022-08-09T23:26:33.632Z,37.67
2022-08-09T23:29:00.272Z,37.95
2022-08-09T23:31:26.887Z,38.06
2022-08-09T23:33:53.532Z,37.92
2022-08-09T23:36:20.130Z,38.23
2022-08-09T23:38:48.530Z,38.29
2022-08-09T23:41:28.953Z,38.00
2022-08-09T23:43:59.870Z,38.33
2022-08-09T23:46:27.696Z,38.35
2022-08-09T23:48:54.315Z,38.73
2022-08-09T23:51:21.147Z,38.89
2022-08-09T23:53:49.607Z,38.75
2022-08-09T23:56:39.454Z,38.71
2022-08-09T23:59:05.731Z,38.97
